Time;durP1;ratioP1;P1;durP2;ratioP2;P2;SDS_P1;SDS_P2;PMS_P1;PMS_P2;Temp;Humidity;BMP_temperature;BMP_pressure;BME280_temperature;BME280_humidity;BME280_pressure;Samples;Min_cycle;Max_cycle;Signal;HPM_P1;HPM_P2
2021/07/25 00:00:57;;;;;;;15.93;11.48;;;;;;;;;;5038488;28;20414;-91
2021/07/25 00:03:24;;;;;;;15.07;12.05;;;;;;;;;;5035055;23;20427;-93
2021/07/25 00:05:51;;;;;;;14.00;12.43;;;;;;;;;;5005631;28;20414;-95
2021/07/25 00:08:18;;;;;;;14.57;12.60;;;;;;;;;;5008289;28;20415;-95
2021/07/25 00:10:48;;;;;;;14.77;12.45;;;;;;;;;;4999399;28;20426;-93
2021/07/25 00:13:16;;;;;;;14.52;13.02;;;;;;;;;;4998196;28;20899;-94
2021/07/25 00:15:43;;;;;;;15.23;13.38;;;;;;;;;;5000184;28;20422;-94
2021/07/25 00:18:10;;;;;;;16.50;13.30;;;;;;;;;;4998276;28;20846;-95
2021/07/25 00:20:37;;;;;;;16.75;12.88;;;;;;;;;;5006024;28;21203;-95
2021/07/25 00:23:05;;;;;;;15.48;13.07;;;;;;;;;;4999186;28;20422;-93
2021/07/25 00:25:33;;;;;;;16.07;12.97;;;;;;;;;;4996893;28;20461;-95
2021/07/25 00:28:02;;;;;;;15.90;13.25;;;;;;;;;;5002438;28;20426;-95
2021/07/25 00:30:29;;;;;;;16.20;13.55;;;;;;;;;;5006462;28;20953;-94
2021/07/25 00:32:56;;;;;;;14.93;12.80;;;;;;;;;;4988746;28;20453;-94
2021/07/25 00:35:23;;;;;;;14.70;12.87;;;;;;;;;;5004306;28;20419;-96
2021/07/25 00:37:52;;;;;;;17.23;12.88;;;;;;;;;;4995627;28;20431;-94
2021/07/25 00:40:29;;;;;;;14.25;12.77;;;;;;;;;;5003837;28;20414;-94
2021/07/25 00:42:57;;;;;;;14.85;12.38;;;;;;;;;;5004970;28;20411;-95
2021/07/25 00:45:25;;;;;;;15.90;13.25;;;;;;;;;;5000412;28;20422;-93
2021/07/25 00:47:52;;;;;;;14.10;12.60;;;;;;;;;;4999607;28;20926;-94
2021/07/25 00:50:20;;;;;;;15.88;12.77;;;;;;;;;;5007959;28;20803;-94
2021/07/25 00:52:47;;;;;;;14.82;12.50;;;;;;;;;;5007034;28;20411;-94
2021/07/25 00:55:15;;;;;;;15.48;12.68;;;;;;;;;;5001217;28;20415;-95
2021/07/25 00:57:43;;;;;;;15.02;13.00;;;;;;;;;;5007004;28;20419;-94
2021/07/25 01:00:11;;;;;;;15.90;12.95;;;;;;;;;;5010540;28;20418;-95
2021/07/25 01:02:52;;;;;;;16.83;13.93;;;;;;;;;;5007529;28;20419;-94
2021/07/25 01:05:30;;;;;;;16.00;12.73;;;;;;;;;;5011264;28;20756;-94
2021/07/25 01:08:05;;;;;;;15.50;12.85;;;;;;;;;;5009755;28;20415;-96
2021/07/25 01:10:32;;;;;;;15.43;13.18;;;;;;;;;;5001641;28;20497;-94
2021/07/25 01:13:04;;;;;;;15.30;12.70;;;;;;;;;;4998592;28;20418;-95
2021/07/25 01:15:33;;;;;;;17.98;13.13;;;;;;;;;;5000995;28;20461;-94
2021/07/25 01:18:01;;;;;;;15.50;13.85;;;;;;;;;;5000384;28;20407;-94
2021/07/25 01:20:30;;;;;;;13.80;12.30;;;;;;;;;;5007822;28;20418;-94
2021/07/25 01:22:59;;;;;;;14.57;12.82;;;;;;;;;;4995647;28;20752;-94
2021/07/25 01:25:28;;;;;;;14.68;12.82;;;;;;;;;;5000149;28;20422;-95
2021/07/25 01:27:58;;;;;;;16.20;13.23;;;;;;;;;;5007845;28;20417;-94
2021/07/25 01:30:29;;;;;;;14.00;12.50;;;;;;;;;;4993344;28;20425;-94
2021/07/25 01:33:00;;;;;;;15.27;12.60;;;;;;;;;;4996355;28;20415;-95
2021/07/25 01:35:29;;;;;;;13.95;11.85;;;;;;;;;;4999952;28;20430;-95
2021/07/25 01:37:57;;;;;;;13.80;12.30;;;;;;;;;;5007643;28;21088;-95
2021/07/25 01:40:26;;;;;;;13.90;11.75;;;;;;;;;;5007251;28;20411;-94
2021/07/25 01:42:54;;;;;;;12.85;11.55;;;;;;;;;;5007591;28;21210;-93
2021/07/25 01:45:22;;;;;;;14.63;12.07;;;;;;;;;;5007709;28;20419;-94
2021/07/25 01:47:50;;;;;;;14.53;12.27;;;;;;;;;;5007346;28;20433;-95
2021/07/25 01:50:18;;;;;;;14.20;12.13;;;;;;;;;;5007198;28;20482;-95
2021/07/25 01:52:45;;;;;;;14.18;12.10;;;;;;;;;;5005608;28;20426;-95
2021/07/25 01:55:15;;;;;;;14.23;11.98;;;;;;;;;;5007562;28;20411;-95
2021/07/25 01:57:43;;;;;;;15.10;12.48;;;;;;;;;;5007173;28;20414;-95
2021/07/25 02:00:12;;;;;;;14.57;12.45;;;;;;;;;;5006871;28;20410;-95
2021/07/25 02:02:39;;;;;;;14.23;12.55;;;;;;;;;;5007067;28;20419;-95
2021/07/25 02:05:07;;;;;;;15.70;13.90;;;;;;;;;;5007402;28;20514;-95
2021/07/25 02:07:35;;;;;;;14.57;12.95;;;;;;;;;;5007173;28;20415;-96
2021/07/25 02:10:02;;;;;;;15.23;12.35;;;;;;;;;;5007021;28;20426;-95
2021/07/25 02:12:31;;;;;;;14.13;12.63;;;;;;;;;;5008363;28;20910;-95
2021/07/25 02:14:58;;;;;;;16.70;12.65;;;;;;;;;;5007099;28;20403;-95
2021/07/25 02:17:24;;;;;;;14.63;12.50;;;;;;;;;;5007462;28;20422;-95
2021/07/25 02:19:51;;;;;;;14.73;13.05;;;;;;;;;;5007053;28;20415;-95
2021/07/25 02:22:19;;;;;;;15.90;13.32;;;;;;;;;;5007226;28;20783;-95
2021/07/25 02:24:46;;;;;;;16.10;12.82;;;;;;;;;;5007155;28;20429;-95
2021/07/25 02:27:13;;;;;;;16.90;13.45;;;;;;;;;;5007324;28;20407;-94
2021/07/25 02:29:41;;;;;;;14.77;12.85;;;;;;;;;;5007108;28;20418;-94
2021/07/25 02:32:08;;;;;;;18.45;12.88;;;;;;;;;;5006694;28;20419;-95
2021/07/25 02:34:36;;;;;;;14.95;13.35;;;;;;;;;;5006894;28;20803;-94
2021/07/25 02:37:04;;;;;;;14.85;12.75;;;;;;;;;;5006945;28;20422;-95
2021/07/25 02:39:31;;;;;;;15.65;12.63;;;;;;;;;;5007276;28;20415;-95
2021/07/25 02:41:58;;;;;;;13.57;12.18;;;;;;;;;;5005149;28;20446;-94
2021/07/25 02:44:24;;;;;;;15.02;12.80;;;;;;;;;;5007182;28;20422;-94
2021/07/25 02:46:53;;;;;;;13.98;12.57;;;;;;;;;;5006980;28;20476;-94
2021/07/25 02:49:20;;;;;;;16.98;13.00;;;;;;;;;;4989613;28;20424;-95
2021/07/25 02:51:47;;;;;;;14.05;12.55;;;;;;;;;;4999132;28;20415;-95
2021/07/25 02:54:14;;;;;;;15.38;12.10;;;;;;;;;;5006719;28;20954;-96
2021/07/25 02:56:42;;;;;;;14.53;12.50;;;;;;;;;;5006732;28;20502;-94
2021/07/25 02:59:09;;;;;;;16.30;12.80;;;;;;;;;;5006370;28;20426;-95
2021/07/25 03:01:35;;;;;;;14.00;12.48;;;;;;;;;;5006502;28;20422;-94
2021/07/25 03:04:05;;;;;;;14.60;12.90;;;;;;;;;;5005981;28;20419;-95
2021/07/25 03:06:32;;;;;;;14.63;12.80;;;;;;;;;;5006539;28;20407;-94
2021/07/25 03:08:59;;;;;;;17.02;13.20;;;;;;;;;;5006627;28;20418;-95
2021/07/25 03:11:26;;;;;;;15.80;13.90;;;;;;;;;;5006154;28;20427;-95
2021/07/25 03:13:53;;;;;;;16.17;13.48;;;;;;;;;;5006611;28;20414;-96
2021/07/25 03:16:20;;;;;;;17.20;13.32;;;;;;;;;;5007011;28;20411;-94
2021/07/25 03:18:47;;;;;;;14.35;12.85;;;;;;;;;;5006760;28;20422;-95
2021/07/25 03:21:16;;;;;;;15.27;12.40;;;;;;;;;;5009918;28;20418;-95
2021/07/25 03:23:43;;;;;;;15.15;12.13;;;;;;;;;;5009961;28;20410;-95
2021/07/25 03:26:10;;;;;;;15.25;12.68;;;;;;;;;;5009889;28;20407;-95
2021/07/25 03:28:37;;;;;;;14.93;12.85;;;;;;;;;;5009672;28;20415;-94
2021/07/25 03:31:04;;;;;;;16.10;12.95;;;;;;;;;;5005030;28;20420;-94
2021/07/25 03:33:31;;;;;;;16.27;13.73;;;;;;;;;;5010231;28;20407;-96
2021/07/25 03:35:58;;;;;;;13.82;12.43;;;;;;;;;;5009964;28;20437;-95
2021/07/25 03:38:27;;;;;;;15.60;13.07;;;;;;;;;;5009945;28;20438;-94
2021/07/25 03:41:01;;;;;;;14.70;13.10;;;;;;;;;;5009723;28;21868;-95
2021/07/25 03:43:29;;;;;;;16.65;13.02;;;;;;;;;;5009300;28;20894;-93
2021/07/25 03:45:56;;;;;;;15.23;12.83;;;;;;;;;;5009888;28;20431;-95
2021/07/25 03:48:25;;;;;;;14.65;13.05;;;;;;;;;;5009765;28;20411;-96
2021/07/25 03:50:52;;;;;;;17.90;12.98;;;;;;;;;;5009499;28;20413;-95
2021/07/25 03:53:20;;;;;;;14.73;12.37;;;;;;;;;;5009592;28;20895;-95
2021/07/25 03:55:49;;;;;;;13.85;11.55;;;;;;;;;;5009098;28;20415;-94
2021/07/25 03:58:16;;;;;;;14.05;11.93;;;;;;;;;;5009148;28;20446;-95
2021/07/25 04:00:43;;;;;;;13.68;11.85;;;;;;;;;;5009435;28;20420;-94
2021/07/25 04:03:10;;;;;;;13.10;11.70;;;;;;;;;;5009121;28;20414;-96
2021/07/25 04:05:37;;;;;;;13.68;12.02;;;;;;;;;;5007960;28;20430;-96
2021/07/25 04:08:08;;;;;;;14.75;11.77;;;;;;;;;;5008699;28;20415;-95
2021/07/25 04:10:40;;;;;;;16.70;12.13;;;;;;;;;;5007955;28;20415;-95
2021/07/25 04:13:08;;;;;;;15.60;12.00;;;;;;;;;;5008827;28;20489;-95
2021/07/25 04:15:39;;;;;;;13.98;11.45;;;;;;;;;;5009125;28;20422;-95
2021/07/25 04:18:06;;;;;;;13.30;11.90;;;;;;;;;;5009098;28;20419;-95
2021/07/25 04:20:33;;;;;;;12.87;11.57;;;;;;;;;;5008766;28;20439;-95
2021/07/25 04:23:02;;;;;;;14.25;11.43;;;;;;;;;;5000780;28;20411;-96
2021/07/25 04:25:29;;;;;;;13.00;10.65;;;;;;;;;;5008855;28;20430;-95
2021/07/25 04:27:57;;;;;;;12.00;10.80;;;;;;;;;;5007786;28;20411;-96
2021/07/25 04:30:28;;;;;;;13.68;10.85;;;;;;;;;;5008431;28;20415;-95
2021/07/25 04:32:56;;;;;;;14.27;11.18;;;;;;;;;;5007938;28;20427;-95
2021/07/25 04:35:24;;;;;;;14.20;11.50;;;;;;;;;;5008485;28;20783;-96
2021/07/25 04:37:54;;;;;;;13.30;11.57;;;;;;;;;;5008410;28;20430;-95
2021/07/25 04:40:23;;;;;;;14.25;11.70;;;;;;;;;;5008642;28;20460;-96
2021/07/25 04:42:53;;;;;;;16.77;12.18;;;;;;;;;;5008293;28;20428;-95
2021/07/25 04:45:30;;;;;;;15.23;12.75;;;;;;;;;;5008254;28;20465;-95
2021/07/25 04:48:06;;;;;;;14.70;12.50;;;;;;;;;;5008931;28;20411;-95
2021/07/25 04:50:37;;;;;;;14.13;12.15;;;;;;;;;;4989180;28;20412;-96
2021/07/25 04:53:06;;;;;;;13.50;12.13;;;;;;;;;;5001071;28;20415;-95
2021/07/25 04:55:36;;;;;;;13.98;12.55;;;;;;;;;;5007829;28;20980;-94
2021/07/25 04:58:06;;;;;;;15.70;12.88;;;;;;;;;;5004785;28;20419;-94
2021/07/25 05:00:39;;;;;;;14.35;12.15;;;;;;;;;;4998991;28;20768;-95
2021/07/25 05:03:07;;;;;;;16.42;13.50;;;;;;;;;;5000931;28;20493;-95
2021/07/25 05:05:35;;;;;;;14.80;13.13;;;;;;;;;;5007927;28;20517;-95
2021/07/25 05:08:04;;;;;;;14.90;13.00;;;;;;;;;;5004470;28;20899;-95
2021/07/25 05:10:31;;;;;;;15.15;12.32;;;;;;;;;;5007845;28;20446;-94
2021/07/25 05:13:05;;;;;;;15.88;13.32;;;;;;;;;;5007786;28;20415;-95
2021/07/25 05:15:35;;;;;;;14.50;12.95;;;;;;;;;;5004202;28;21037;-95
2021/07/25 05:18:06;;;;;;;16.13;13.10;;;;;;;;;;5007409;28;20414;-94
2021/07/25 05:20:39;;;;;;;17.08;13.60;;;;;;;;;;5007589;28;20444;-95
2021/07/25 05:23:18;;;;;;;15.55;13.68;;;;;;;;;;5007840;28;20451;-95
2021/07/25 05:25:49;;;;;;;15.88;13.45;;;;;;;;;;5007433;28;20517;-95
2021/07/25 05:28:19;;;;;;;16.33;13.20;;;;;;;;;;5008290;28;20422;-96
2021/07/25 05:30:51;;;;;;;16.48;12.95;;;;;;;;;;5008103;28;20415;-95
2021/07/25 05:33:18;;;;;;;14.32;12.82;;;;;;;;;;5003124;28;20426;-95
2021/07/25 05:35:45;;;;;;;14.20;12.43;;;;;;;;;;5008637;28;20415;-95
2021/07/25 05:38:13;;;;;;;15.80;12.20;;;;;;;;;;5007588;28;20675;-94
2021/07/25 05:40:40;;;;;;;14.10;12.40;;;;;;;;;;5007136;28;20414;-95
2021/07/25 05:43:07;;;;;;;13.50;11.90;;;;;;;;;;5006469;28;20499;-93
2021/07/25 05:45:34;;;;;;;14.43;11.50;;;;;;;;;;5007119;28;20423;-94
2021/07/25 05:48:02;;;;;;;16.00;11.65;;;;;;;;;;4999028;28;20415;-94
2021/07/25 05:50:29;;;;;;;12.73;11.05;;;;;;;;;;5007116;28;20923;-94
2021/07/25 05:52:58;;;;;;;12.98;11.65;;;;;;;;;;5003425;28;20900;-94
2021/07/25 05:55:26;;;;;;;15.80;11.50;;;;;;;;;;5002108;28;20419;-94
2021/07/25 05:57:53;;;;;;;13.38;11.27;;;;;;;;;;5005401;28;20417;-95
2021/07/25 06:00:20;;;;;;;12.68;11.05;;;;;;;;;;5007149;28;20754;-93
2021/07/25 06:02:56;;;;;;;14.98;11.10;;;;;;;;;;5013222;28;20412;-94
2021/07/25 06:05:25;;;;;;;14.07;11.20;;;;;;;;;;4989274;28;20426;-94
2021/07/25 06:07:53;;;;;;;12.45;10.93;;;;;;;;;;4989671;28;20403;-95
2021/07/25 06:10:21;;;;;;;13.33;11.13;;;;;;;;;;4999857;28;20422;-95
2021/07/25 06:12:48;;;;;;;14.60;10.88;;;;;;;;;;4995284;28;20423;-94
2021/07/25 06:15:15;;;;;;;12.35;10.55;;;;;;;;;;5003191;28;20422;-94
2021/07/25 06:17:42;;;;;;;12.65;10.90;;;;;;;;;;4995312;28;20419;-93
2021/07/25 06:20:09;;;;;;;13.23;11.00;;;;;;;;;;4970655;28;20412;-95
2021/07/25 06:22:42;;;;;;;13.35;10.23;;;;;;;;;;5003786;28;20477;-93
2021/07/25 06:25:11;;;;;;;13.18;11.13;;;;;;;;;;4993571;28;20413;-94
2021/07/25 06:27:39;;;;;;;12.52;10.93;;;;;;;;;;5003345;28;20760;-93
2021/07/25 06:30:08;;;;;;;12.05;10.60;;;;;;;;;;4996018;28;20467;-94
2021/07/25 06:32:56;;;;;;;12.52;10.45;;;;;;;;;;5006553;28;20415;-93
2021/07/25 06:35:24;;;;;;;12.52;10.27;;;;;;;;;;5000399;28;20409;-94
2021/07/25 06:37:53;;;;;;;13.60;10.35;;;;;;;;;;5001813;28;20403;-94
2021/07/25 06:40:20;;;;;;;12.10;9.70;;;;;;;;;;5003456;28;20411;-96
2021/07/25 06:42:47;;;;;;;11.20;9.98;;;;;;;;;;5004739;28;20902;-94
2021/07/25 06:45:14;;;;;;;12.40;9.57;;;;;;;;;;4990521;28;20974;-92
2021/07/25 06:47:42;;;;;;;11.90;9.48;;;;;;;;;;5005740;28;20410;-90
2021/07/25 06:50:10;;;;;;;10.43;9.32;;;;;;;;;;4998764;28;20438;-89
2021/07/25 06:52:39;;;;;;;13.27;8.87;;;;;;;;;;4988263;28;20465;-91
2021/07/25 06:55:09;;;;;;;12.35;8.90;;;;;;;;;;4998318;28;20409;-88
2021/07/25 06:57:37;;;;;;;10.25;9.02;;;;;;;;;;5000890;28;20432;-90
2021/07/25 07:00:05;;;;;;;10.35;9.00;;;;;;;;;;5008115;28;20415;-89
2021/07/25 07:02:46;;;;;;;10.45;8.68;;;;;;;;;;5002527;28;20422;-89
2021/07/25 07:05:12;;;;;;;10.30;8.73;;;;;;;;;;5002679;28;20421;-88
2021/07/25 07:07:39;;;;;;;11.30;9.17;;;;;;;;;;5003247;28;20425;-84
2021/07/25 07:10:09;;;;;;;11.75;8.85;;;;;;;;;;5008870;28;20414;-94
2021/07/25 07:12:36;;;;;;;11.35;8.57;;;;;;;;;;4998127;28;20404;-94
2021/07/25 07:15:04;;;;;;;12.55;9.20;;;;;;;;;;4999466;28;20451;-94
2021/07/25 07:17:32;;;;;;;9.90;8.60;;;;;;;;;;5007321;28;20521;-93
2021/07/25 07:19:59;;;;;;;9.90;8.90;;;;;;;;;;4991094;28;21656;-94
2021/07/25 07:22:27;;;;;;;11.98;8.93;;;;;;;;;;5009739;28;20415;-93
2021/07/25 07:24:54;;;;;;;10.23;8.63;;;;;;;;;;4999831;28;20412;-94
2021/07/25 07:27:23;;;;;;;9.45;8.50;;;;;;;;;;4983117;28;20410;-95
2021/07/25 07:29:51;;;;;;;10.93;8.90;;;;;;;;;;5001022;28;20403;-92
2021/07/25 07:32:18;;;;;;;9.75;8.60;;;;;;;;;;4965585;28;20488;-91
2021/07/25 07:34:45;;;;;;;9.63;8.63;;;;;;;;;;5001854;28;20411;-89
2021/07/25 07:37:12;;;;;;;8.83;7.93;;;;;;;;;;5004053;28;20403;-90
2021/07/25 07:39:40;;;;;;;9.13;8.20;;;;;;;;;;5007238;28;21345;-89
2021/07/25 07:42:09;;;;;;;10.35;8.50;;;;;;;;;;5006653;28;20407;-91
2021/07/25 07:44:38;;;;;;;9.35;8.00;;;;;;;;;;5008694;28;21014;-91
2021/07/25 07:47:06;;;;;;;8.60;7.65;;;;;;;;;;5006645;28;20488;-90
2021/07/25 07:49:33;;;;;;;10.48;8.13;;;;;;;;;;5008891;28;20415;-90
2021/07/25 07:52:00;;;;;;;11.80;8.45;;;;;;;;;;5005628;28;20887;-91
2021/07/25 07:54:28;;;;;;;13.30;8.45;;;;;;;;;;5005438;28;20424;-91
2021/07/25 07:56:55;;;;;;;12.23;8.43;;;;;;;;;;4989977;28;20888;-91
2021/07/25 07:59:22;;;;;;;10.45;8.70;;;;;;;;;;4999194;28;20408;-92
2021/07/25 08:01:50;;;;;;;14.07;8.30;;;;;;;;;;5003883;28;21137;-91
2021/07/25 08:04:17;;;;;;;10.63;8.50;;;;;;;;;;5007534;28;20411;-89
2021/07/25 08:06:45;;;;;;;9.50;8.45;;;;;;;;;;5006561;28;20427;-90
2021/07/25 08:09:12;;;;;;;12.02;8.82;;;;;;;;;;5008095;28;20414;-90
2021/07/25 08:11:43;;;;;;;10.27;8.80;;;;;;;;;;5001580;28;20423;-90
2021/07/25 08:14:11;;;;;;;10.20;9.10;;;;;;;;;;4999833;28;20824;-90
2021/07/25 08:16:38;;;;;;;12.43;8.55;;;;;;;;;;4996743;28;20444;-89
2021/07/25 08:19:07;;;;;;;10.13;8.77;;;;;;;;;;5004380;28;20407;-91
2021/07/25 08:21:33;;;;;;;12.00;9.18;;;;;;;;;;5007411;28;20407;-91
2021/07/25 08:24:01;;;;;;;9.45;8.40;;;;;;;;;;5004609;28;20411;-91
2021/07/25 08:26:28;;;;;;;13.50;9.27;;;;;;;;;;5005631;28;20418;-90
2021/07/25 08:28:58;;;;;;;9.05;8.07;;;;;;;;;;5004785;28;20416;-89
2021/07/25 08:31:25;;;;;;;9.75;8.68;;;;;;;;;;5001043;28;20418;-92
2021/07/25 08:33:52;;;;;;;11.68;9.10;;;;;;;;;;4999668;28;20407;-91
2021/07/25 08:36:22;;;;;;;11.57;8.98;;;;;;;;;;5007698;28;20415;-89
2021/07/25 08:38:49;;;;;;;10.57;9.07;;;;;;;;;;5003949;28;20434;-91
2021/07/25 08:41:23;;;;;;;11.07;9.10;;;;;;;;;;5001030;28;20417;-91
2021/07/25 08:43:54;;;;;;;12.90;9.50;;;;;;;;;;5000887;28;20438;-90
2021/07/25 08:46:22;;;;;;;11.85;8.98;;;;;;;;;;4989820;28;20409;-92
2021/07/25 08:48:51;;;;;;;9.73;8.63;;;;;;;;;;5002138;28;20422;-91
2021/07/25 08:51:21;;;;;;;10.60;9.25;;;;;;;;;;5003022;28;20414;-89
2021/07/25 08:54:00;;;;;;;11.60;9.00;;;;;;;;;;5007265;28;20469;-90
2021/07/25 08:56:32;;;;;;;10.20;9.23;;;;;;;;;;5002711;28;20922;-91
2021/07/25 08:59:00;;;;;;;11.10;9.50;;;;;;;;;;5006500;28;20891;-90
2021/07/25 09:01:35;;;;;;;10.40;9.05;;;;;;;;;;5007497;28;20419;-91
2021/07/25 09:04:03;;;;;;;12.95;9.43;;;;;;;;;;5002398;28;20411;-89
2021/07/25 09:06:50;;;;;;;12.55;9.40;;;;;;;;;;5007190;28;20454;-90
2021/07/25 09:09:19;;;;;;;11.43;9.18;;;;;;;;;;4993310;28;20411;-89
2021/07/25 09:11:47;;;;;;;10.50;8.85;;;;;;;;;;5006668;28;20422;-90
2021/07/25 09:14:14;;;;;;;11.05;9.05;;;;;;;;;;5002742;28;20550;-90
2021/07/25 09:16:41;;;;;;;10.82;9.00;;;;;;;;;;5005522;28;20415;-90
2021/07/25 09:19:08;;;;;;;12.20;9.35;;;;;;;;;;4986798;28;20395;-89
2021/07/25 09:21:43;;;;;;;10.55;9.18;;;;;;;;;;5002291;28;20403;-90
2021/07/25 09:24:21;;;;;;;12.63;8.98;;;;;;;;;;4996540;28;20955;-89
2021/07/25 09:26:57;;;;;;;10.07;9.00;;;;;;;;;;5005406;28;20422;-89
2021/07/25 09:29:26;;;;;;;11.07;9.50;;;;;;;;;;5004562;28;20829;-91
2021/07/25 09:32:13;;;;;;;10.43;9.25;;;;;;;;;;5004795;28;20399;-92
2021/07/25 09:34:41;;;;;;;10.63;8.95;;;;;;;;;;5002249;28;20883;-89
2021/07/25 09:37:12;;;;;;;10.45;9.27;;;;;;;;;;4989710;28;20437;-90
2021/07/25 09:39:40;;;;;;;10.18;9.07;;;;;;;;;;5001968;28;20406;-90
2021/07/25 09:42:08;;;;;;;11.55;9.15;;;;;;;;;;5003494;28;20415;-89
2021/07/25 09:44:50;;;;;;;9.95;8.95;;;;;;;;;;5000799;28;21303;-89
2021/07/25 09:47:28;;;;;;;10.67;9.13;;;;;;;;;;4990899;28;20427;-90
2021/07/25 09:49:55;;;;;;;10.93;8.90;;;;;;;;;;4997261;28;20423;-89
2021/07/25 09:52:31;;;;;;;12.27;9.30;;;;;;;;;;4999269;28;20415;-87
2021/07/25 09:54:59;;;;;;;10.45;9.00;;;;;;;;;;5000004;28;20418;-92
2021/07/25 09:57:27;;;;;;;11.02;9.15;;;;;;;;;;5005085;28;21135;-91
2021/07/25 09:59:56;;;;;;;10.43;8.80;;;;;;;;;;4998835;28;20423;-90
2021/07/25 10:02:33;;;;;;;10.73;8.95;;;;;;;;;;4997568;28;20439;-90
2021/07/25 10:05:12;;;;;;;12.83;9.20;;;;;;;;;;4998077;28;21267;-90
2021/07/25 10:07:41;;;;;;;10.50;9.00;;;;;;;;;;5000609;28;20434;-93
2021/07/25 10:10:11;;;;;;;9.82;8.80;;;;;;;;;;4991820;28;20411;-91
2021/07/25 10:12:40;;;;;;;11.20;9.00;;;;;;;;;;4998898;28;20439;-90
2021/07/25 10:15:09;;;;;;;11.88;9.13;;;;;;;;;;5002696;28;20959;-88
2021/07/25 10:17:38;;;;;;;13.15;9.38;;;;;;;;;;4998237;28;20439;-89
2021/07/25 10:20:07;;;;;;;10.77;8.90;;;;;;;;;;4997733;28;20414;-90
2021/07/25 10:22:36;;;;;;;11.15;9.02;;;;;;;;;;4994209;28;20849;-91
2021/07/25 10:25:06;;;;;;;11.43;8.18;;;;;;;;;;5001516;28;20853;-92
2021/07/25 10:27:34;;;;;;;11.15;8.32;;;;;;;;;;4993721;28;20960;-91
2021/07/25 10:30:05;;;;;;;9.90;8.90;;;;;;;;;;5001176;28;20411;-91
2021/07/25 10:32:34;;;;;;;10.23;8.90;;;;;;;;;;4981755;28;20445;-90
2021/07/25 10:35:04;;;;;;;9.27;8.40;;;;;;;;;;5002623;28;20498;-92
2021/07/25 10:37:32;;;;;;;9.30;8.30;;;;;;;;;;4988925;28;20499;-92
2021/07/25 10:40:00;;;;;;;9.60;8.50;;;;;;;;;;4977169;28;20412;-90
2021/07/25 10:42:31;;;;;;;10.65;8.63;;;;;;;;;;4999031;28;20454;-91
2021/07/25 10:44:58;;;;;;;10.88;8.52;;;;;;;;;;4996573;28;20477;-93
2021/07/25 10:47:27;;;;;;;11.13;8.95;;;;;;;;;;4995986;28;20430;-91
2021/07/25 10:50:02;;;;;;;11.15;8.57;;;;;;;;;;5002086;28;20457;-93
2021/07/25 10:52:49;;;;;;;10.02;9.00;;;;;;;;;;4996806;28;20464;-90
2021/07/25 10:55:50;;;;;;;11.35;9.07;;;;;;;;;;4994964;28;20765;-89
2021/07/25 10:58:19;;;;;;;10.90;8.43;;;;;;;;;;4998121;28;20848;-87
2021/07/25 11:00:49;;;;;;;12.43;8.80;;;;;;;;;;5001178;28;20419;-94
2021/07/25 11:03:42;;;;;;;12.48;8.98;;;;;;;;;;4998495;28;20477;-94
2021/07/25 11:06:17;;;;;;;13.57;9.10;;;;;;;;;;4996648;28;20442;-93
2021/07/25 11:08:46;;;;;;;9.80;8.75;;;;;;;;;;5004569;28;20442;-95
2021/07/25 11:11:53;;;;;;;11.87;8.90;;;;;;;;;;5000443;28;20422;-93
2021/07/25 11:15:06;;;;;;;12.15;8.65;;;;;;;;;;5007846;28;20495;-93
2021/07/25 11:18:06;;;;;;;14.35;8.68;;;;;;;;;;4976044;28;20399;-92
2021/07/25 11:20:44;;;;;;;10.80;9.05;;;;;;;;;;5000749;28;20416;-93
2021/07/25 11:23:33;;;;;;;11.60;9.07;;;;;;;;;;5001690;28;20411;-94
2021/07/25 11:26:31;;;;;;;12.60;8.93;;;;;;;;;;5012938;28;20413;-93
2021/07/25 11:28:58;;;;;;;12.00;9.07;;;;;;;;;;5015734;28;20392;-93
2021/07/25 11:31:37;;;;;;;13.40;9.48;;;;;;;;;;5009335;28;20482;-94
2021/07/25 11:34:07;;;;;;;11.70;9.07;;;;;;;;;;4999537;28;20807;-93
2021/07/25 11:36:35;;;;;;;12.23;9.18;;;;;;;;;;5008629;28;20391;-94
2021/07/25 11:39:04;;;;;;;13.57;9.00;;;;;;;;;;4996037;28;20411;-95
2021/07/25 11:41:33;;;;;;;12.32;9.00;;;;;;;;;;5017171;28;20408;-93
2021/07/25 11:44:01;;;;;;;11.25;9.23;;;;;;;;;;4998803;28;20411;-93
2021/07/25 11:46:33;;;;;;;13.10;9.32;;;;;;;;;;4999960;28;20403;-93
2021/07/25 11:49:13;;;;;;;14.23;9.30;;;;;;;;;;5002370;28;20783;-93
2021/07/25 11:51:44;;;;;;;12.70;9.55;;;;;;;;;;5003772;28;20448;-93
2021/07/25 11:54:12;;;;;;;11.13;8.73;;;;;;;;;;4994303;28;20403;-94
2021/07/25 11:56:56;;;;;;;14.23;9.45;;;;;;;;;;4996515;28;20414;-93
2021/07/25 11:59:23;;;;;;;14.55;9.25;;;;;;;;;;5000494;28;20406;-94
2021/07/25 12:01:50;;;;;;;14.05;9.15;;;;;;;;;;5004309;28;20410;-93
2021/07/25 12:04:20;;;;;;;14.20;8.53;;;;;;;;;;4998749;28;20408;-94
2021/07/25 12:06:48;;;;;;;13.53;8.70;;;;;;;;;;4983280;28;20538;-93
2021/07/25 12:09:14;;;;;;;12.67;9.07;;;;;;;;;;5004113;28;20428;-95
2021/07/25 12:11:42;;;;;;;13.88;8.52;;;;;;;;;;5001817;28;20445;-95
2021/07/25 12:14:09;;;;;;;12.25;8.68;;;;;;;;;;4995548;28;20401;-94
2021/07/25 12:16:49;;;;;;;12.35;9.25;;;;;;;;;;4998637;28;21096;-92
2021/07/25 12:19:20;;;;;;;14.68;9.27;;;;;;;;;;4998876;28;20395;-96
2021/07/25 12:21:48;;;;;;;10.63;8.30;;;;;;;;;;4998085;28;20761;-94
2021/07/25 12:24:32;;;;;;;12.63;8.63;;;;;;;;;;5001174;28;20414;-94
2021/07/25 12:27:03;;;;;;;10.77;8.27;;;;;;;;;;4999541;28;20772;-94
2021/07/25 12:29:39;;;;;;;12.05;8.48;;;;;;;;;;4998577;28;20422;-94
2021/07/25 12:32:31;;;;;;;11.93;8.68;;;;;;;;;;5003944;28;20415;-95
2021/07/25 12:35:25;;;;;;;13.20;9.20;;;;;;;;;;5001169;28;20411;-94
2021/07/25 12:37:59;;;;;;;11.90;8.55;;;;;;;;;;4998376;28;20438;-95
2021/07/25 12:40:29;;;;;;;12.25;8.95;;;;;;;;;;4999565;28;20871;-95
2021/07/25 12:43:10;;;;;;;12.67;8.67;;;;;;;;;;4981214;28;20407;-95
2021/07/25 12:45:44;;;;;;;14.77;9.25;;;;;;;;;;5001541;28;20457;-93
2021/07/25 12:48:13;;;;;;;11.27;8.95;;;;;;;;;;4997283;28;20432;-94
2021/07/25 12:50:55;;;;;;;12.82;8.95;;;;;;;;;;5000484;28;20413;-94
2021/07/25 12:53:36;;;;;;;12.50;8.60;;;;;;;;;;5004897;28;20446;-94
2021/07/25 12:56:07;;;;;;;13.53;8.63;;;;;;;;;;4997930;28;21004;-96
2021/07/25 12:58:40;;;;;;;11.23;8.27;;;;;;;;;;4981722;28;21138;-94
2021/07/25 13:04:02;;;;;;;11.07;8.30;;;;;;;;;;4995899;28;20557;-95
2021/07/25 13:06:38;;;;;;;12.20;8.07;;;;;;;;;;4997740;28;20411;-95
2021/07/25 13:09:09;;;;;;;12.93;8.50;;;;;;;;;;5004404;28;20427;-93
2021/07/25 13:11:42;;;;;;;12.00;8.02;;;;;;;;;;5001904;28;20431;-94
2021/07/25 13:14:12;;;;;;;11.10;8.00;;;;;;;;;;5007806;28;20419;-93
2021/07/25 13:16:44;;;;;;;11.27;7.90;;;;;;;;;;4995653;28;20471;-94
2021/07/25 13:19:13;;;;;;;9.93;7.60;;;;;;;;;;5003508;28;20411;-94
2021/07/25 13:21:44;;;;;;;10.57;7.63;;;;;;;;;;5001061;28;20425;-95
2021/07/25 13:24:15;;;;;;;11.15;7.60;;;;;;;;;;4997588;28;20869;-94
2021/07/25 13:26:44;;;;;;;9.82;7.63;;;;;;;;;;5003578;28;20411;-94
2021/07/25 13:29:15;;;;;;;10.55;7.53;;;;;;;;;;4986736;28;20858;-95
2021/07/25 13:31:44;;;;;;;12.10;7.87;;;;;;;;;;5006712;28;20415;-94
2021/07/25 13:34:13;;;;;;;11.40;7.78;;;;;;;;;;5003969;28;20408;-95
2021/07/25 13:36:45;;;;;;;11.65;7.45;;;;;;;;;;5000733;28;20457;-91
2021/07/25 13:39:14;;;;;;;12.00;7.67;;;;;;;;;;5001791;28;20404;-94
2021/07/25 13:41:41;;;;;;;11.35;7.70;;;;;;;;;;4953146;28;20410;-92
2021/07/25 13:44:10;;;;;;;9.65;7.47;;;;;;;;;;4926817;29;20410;-79
2021/07/25 13:46:55;;;;;;;9.25;7.20;;;;;;;;;;4926441;29;20910;-93
2021/07/25 13:49:25;;;;;;;12.73;7.88;;;;;;;;;;4925138;29;20417;-95
2021/07/25 13:51:58;;;;;;;12.07;8.40;;;;;;;;;;4928471;29;21690;-87
2021/07/25 13:54:28;;;;;;;10.02;7.88;;;;;;;;;;4928907;29;20410;-96
2021/07/25 13:56:56;;;;;;;14.73;8.55;;;;;;;;;;4928366;28;20975;-96
2021/07/25 13:59:25;;;;;;;10.65;8.00;;;;;;;;;;4920773;29;20413;-96
2021/07/25 14:01:52;;;;;;;14.77;8.40;;;;;;;;;;4929394;29;20433;-96
2021/07/25 14:04:20;;;;;;;13.07;8.18;;;;;;;;;;4945883;28;20483;-96
2021/07/25 14:06:49;;;;;;;11.55;8.18;;;;;;;;;;4950258;28;20441;-96
2021/07/25 14:09:18;;;;;;;14.10;8.63;;;;;;;;;;4941692;29;20431;-95
2021/07/25 14:11:46;;;;;;;13.32;8.77;;;;;;;;;;4946777;28;21686;-96
2021/07/25 14:14:18;;;;;;;13.95;8.90;;;;;;;;;;4947995;29;20636;-95
2021/07/25 14:16:46;;;;;;;12.98;8.68;;;;;;;;;;4944579;29;20806;-96
2021/07/25 14:19:16;;;;;;;12.77;9.00;;;;;;;;;;4948098;28;20417;-96
2021/07/25 14:21:46;;;;;;;11.02;8.40;;;;;;;;;;4940627;29;20424;-96
2021/07/25 14:24:14;;;;;;;13.85;8.80;;;;;;;;;;4940851;28;20518;-96
2021/07/25 14:26:45;;;;;;;12.23;8.60;;;;;;;;;;4943197;28;20430;-95
2021/07/25 14:29:13;;;;;;;13.63;8.50;;;;;;;;;;4938044;29;20515;-95
2021/07/25 14:31:41;;;;;;;10.88;8.65;;;;;;;;;;4943455;29;20459;-96
2021/07/25 14:34:10;;;;;;;11.50;8.65;;;;;;;;;;4949030;29;20416;-95
2021/07/25 14:36:38;;;;;;;10.40;8.73;;;;;;;;;;4941742;29;20424;-95
2021/07/25 14:39:07;;;;;;;10.40;8.50;;;;;;;;;;4950226;28;20416;-95
2021/07/25 14:41:38;;;;;;;13.00;8.68;;;;;;;;;;4939734;29;20529;-96
2021/07/25 14:44:09;;;;;;;12.32;8.90;;;;;;;;;;4948558;29;20492;-96
2021/07/25 14:46:37;;;;;;;12.10;8.90;;;;;;;;;;4944705;28;20420;-95